Time;durP1;ratioP1;P1;durP2;ratioP2;P2;SDS_P1;SDS_P2;PMS_P1;PMS_P2;Temp;Humidity;BMP_temperature;BMP_pressure;BME280_temperature;BME280_humidity;BME280_pressure;Samples;Min_cycle;Max_cycle;Signal;HPM_P1;HPM_P2
2022/01/17 00:02:13;;;;;;;15.00;6.45;;;;;;;-2.17;66.83;100077.60;1689787;83;21032;-75
2022/01/17 00:04:41;;;;;;;12.47;6.42;;;;;;;-2.18;66.88;100072.88;1710396;83;21554;-78
2022/01/17 00:07:08;;;;;;;11.18;5.95;;;;;;;-2.17;66.92;100071.13;1689867;84;20996;-74
2022/01/17 00:09:34;;;;;;;11.95;6.12;;;;;;;-2.20;67.03;100066.91;1694787;84;21500;-74
2022/01/17 00:12:04;;;;;;;12.93;5.90;;;;;;;-2.20;67.03;100062.19;1682230;84;21850;-74
2022/01/17 00:14:39;;;;;;;12.05;6.45;;;;;;;-2.23;67.14;100060.52;1685444;84;20980;-74
2022/01/17 00:17:22;;;;;;;12.73;6.12;;;;;;;-2.25;67.20;100055.84;1690211;84;21028;-74
2022/01/17 00:19:42;;;;;;;13.28;6.78;;;;;;;-2.27;67.28;100039.98;1689717;84;21106;-73
2022/01/17 00:22:04;;;;;;;17.55;7.17;;;;;;;-2.29;67.38;100031.44;1694479;84;21098;-75
2022/01/17 00:24:30;;;;;;;14.25;6.60;;;;;;;-2.33;67.48;100017.29;1685084;84;21832;-75
2022/01/17 00:26:57;;;;;;;16.82;7.28;;;;;;;-2.35;67.57;100016.50;1694647;84;21462;-74
2022/01/17 00:29:23;;;;;;;14.75;7.83;;;;;;;-2.37;67.64;100007.95;1696269;84;21615;-75
2022/01/17 00:31:51;;;;;;;14.03;7.37;;;;;;;-2.38;67.72;100009.30;1692603;84;21003;-75
2022/01/17 00:34:18;;;;;;;15.45;7.45;;;;;;;-2.39;67.79;100003.28;1689749;84;20964;-75
2022/01/17 00:36:44;;;;;;;12.65;6.58;;;;;;;-2.39;67.85;99996.81;1678916;84;21841;-75
2022/01/17 00:39:11;;;;;;;11.18;6.05;;;;;;;-2.41;67.91;99996.03;1664680;84;20985;-74
2022/01/17 00:41:37;;;;;;;11.25;6.08;;;;;;;-2.43;67.94;99986.60;1679903;85;21439;-74
2022/01/17 00:44:04;;;;;;;12.85;6.20;;;;;;;-2.46;68.04;99982.83;1675437;85;21015;-74
2022/01/17 00:46:32;;;;;;;12.93;6.20;;;;;;;-2.49;68.16;99976.48;1672424;85;20991;-75
2022/01/17 00:48:58;;;;;;;11.43;6.60;;;;;;;-2.50;68.28;99966.59;1680405;85;21785;-74
2022/01/17 00:51:24;;;;;;;15.95;6.90;;;;;;;-2.52;68.31;99959.75;1679715;85;20976;-76
2022/01/17 00:53:51;;;;;;;12.37;6.30;;;;;;;-2.53;68.41;99964.53;1662327;85;21000;-76
2022/01/17 00:56:21;;;;;;;12.58;6.33;;;;;;;-2.53;68.46;99963.23;1666249;84;21040;-75
2022/01/17 00:58:50;;;;;;;12.70;6.28;;;;;;;-2.54;68.49;99960.25;1679501;84;20984;-76
2022/01/17 01:01:16;;;;;;;17.82;6.85;;;;;;;-2.54;68.59;99958.52;1679854;85;21808;-76
2022/01/17 01:03:43;;;;;;;14.58;6.33;;;;;;;-2.54;68.66;99946.88;1659877;85;21015;-75
2022/01/17 01:06:10;;;;;;;17.05;6.67;;;;;;;-2.52;68.66;99946.82;1674239;85;21065;-75
2022/01/17 01:08:36;;;;;;;11.57;6.53;;;;;;;-2.52;68.74;99947.66;1672155;85;21050;-74
2022/01/17 01:11:02;;;;;;;11.43;7.20;;;;;;;-2.53;68.71;99942.09;1679913;84;21179;-75
2022/01/17 01:13:30;;;;;;;14.10;6.78;;;;;;;-2.51;68.73;99941.63;1677435;84;23886;-75
2022/01/17 01:29:05;;;;;;;14.25;6.80;;;;;;;-2.49;68.36;99905.38;1647559;86;21016;-76
2022/01/17 01:31:43;;;;;;;13.93;7.12;;;;;;;-2.51;68.33;99904.55;1689657;84;20959;-75
2022/01/17 01:34:04;;;;;;;12.10;6.42;;;;;;;-2.54;68.28;99896.45;1662201;86;21633;-77
2022/01/17 01:36:29;;;;;;;15.65;7.67;;;;;;;-2.55;68.23;99890.89;1694368;84;20960;-76
2022/01/17 01:38:55;;;;;;;18.80;11.08;;;;;;;-2.57;68.24;99877.63;1699908;84;22689;-75
2022/01/17 01:41:23;;;;;;;22.52;12.93;;;;;;;-2.60;68.22;99866.50;1666639;84;21339;-75
2022/01/17 01:43:49;;;;;;;18.48;8.65;;;;;;;-2.60;68.20;99869.53;1686409;84;21447;-76
2022/01/17 01:46:19;;;;;;;16.80;8.98;;;;;;;-2.64;68.25;99867.48;1683814;84;21023;-74
2022/01/17 01:48:44;;;;;;;16.50;8.33;;;;;;;-2.68;68.30;99853.44;1699211;84;21111;-76
2022/01/17 01:51:10;;;;;;;11.48;7.53;;;;;;;-2.69;68.33;99848.71;1696285;84;22417;-75
2022/01/17 01:53:38;;;;;;;14.50;7.45;;;;;;;-2.72;68.38;99852.67;1684268;83;21490;-76
2022/01/17 01:56:05;;;;;;;16.17;6.97;;;;;;;-2.75;68.47;99841.16;1692355;84;21546;-78
2022/01/17 01:58:32;;;;;;;12.70;7.10;;;;;;;-2.77;68.49;99839.52;1690003;83;20997;-77
2022/01/17 02:00:59;;;;;;;12.45;6.97;;;;;;;-2.77;68.53;99826.60;1679901;84;21011;-76
2022/01/17 02:03:26;;;;;;;13.40;7.00;;;;;;;-2.77;68.56;99826.60;1707688;83;21900;-76
2022/01/17 02:05:52;;;;;;;13.95;6.78;;;;;;;-2.77;68.58;99814.97;1707514;83;20956;-76
2022/01/17 02:08:18;;;;;;;11.70;6.70;;;;;;;-2.78;68.63;99809.41;1702000;84;21452;-75
2022/01/17 02:10:45;;;;;;;11.78;6.25;;;;;;;-2.78;68.61;99804.23;1708058;83;21541;-76
2022/01/17 02:13:11;;;;;;;13.13;6.75;;;;;;;-2.79;68.63;99794.80;1703219;83;20992;-74
2022/01/17 02:15:39;;;;;;;12.30;6.72;;;;;;;-2.80;68.67;99787.47;1695120;84;21789;-75
2022/01/17 02:18:07;;;;;;;14.53;6.62;;;;;;;-2.80;68.71;99795.67;1704892;84;21011;-76
2022/01/17 02:20:58;;;;;;;13.62;6.95;;;;;;;-2.81;68.76;99787.52;1707260;83;21119;-75
2022/01/17 02:23:04;;;;;;;12.90;7.25;;;;;;;-2.82;68.79;99792.30;1701633;84;21463;-76
2022/01/17 02:25:31;;;;;;;16.57;7.25;;;;;;;-2.83;68.86;99781.12;1693857;84;22206;-76
2022/01/17 02:27:58;;;;;;;13.43;7.70;;;;;;;-2.83;68.82;99784.16;1705234;84;21776;-75
2022/01/17 02:30:26;;;;;;;14.58;7.30;;;;;;;-2.83;68.85;99773.81;1703875;84;20948;-75
2022/01/17 02:32:53;;;;;;;12.35;7.22;;;;;;;-2.84;68.85;99765.22;1686450;84;20983;-76
2022/01/17 02:35:22;;;;;;;16.90;7.92;;;;;;;-2.86;68.89;99761.01;1661906;85;20995;-75
2022/01/17 02:37:49;;;;;;;14.63;7.95;;;;;;;-2.87;68.97;99747.70;1693528;84;21095;-77
2022/01/17 02:40:17;;;;;;;12.80;7.33;;;;;;;-2.89;69.01;99746.46;1687830;84;21804;-75
2022/01/17 02:42:46;;;;;;;12.68;7.80;;;;;;;-2.88;69.04;99741.69;1681978;84;21065;-76
2022/01/17 02:45:32;;;;;;;18.35;9.40;;;;;;;-2.88;69.05;99739.11;1683106;83;20952;-76
2022/01/17 02:47:48;;;;;;;16.75;7.90;;;;;;;-2.89;69.07;99734.38;1682020;84;21039;-75
2022/01/17 02:50:14;;;;;;;18.70;8.68;;;;;;;-2.86;69.10;99728.70;1676772;84;21123;-76
2022/01/17 02:52:41;;;;;;;19.05;8.53;;;;;;;-2.84;69.07;99730.33;1690456;84;22505;-76
2022/01/17 02:55:10;;;;;;;16.23;9.45;;;;;;;-2.81;69.00;99709.99;1689280;83;21007;-76
2022/01/17 02:57:36;;;;;;;17.82;8.55;;;;;;;-2.79;68.93;99707.77;1664711;86;21051;-76
2022/01/17 03:00:05;;;;;;;17.23;8.78;;;;;;;-2.77;68.88;99714.17;1671442;84;21022;-76
2022/01/17 03:02:32;;;;;;;18.15;8.83;;;;;;;-2.76;68.86;99701.19;1672726;84;21074;-75
2022/01/17 03:04:58;;;;;;;14.65;8.53;;;;;;;-2.74;68.85;99699.84;1698240;84;21822;-76
2022/01/17 03:07:25;;;;;;;16.82;8.73;;;;;;;-2.75;68.86;99694.28;1685948;84;21048;-75
2022/01/17 03:10:02;;;;;;;15.20;8.10;;;;;;;-2.76;68.87;99680.52;1686627;84;21182;-77
2022/01/17 03:12:19;;;;;;;18.48;8.70;;;;;;;-2.76;68.85;99681.81;1675875;84;21404;-76
2022/01/17 03:14:46;;;;;;;14.87;8.03;;;;;;;-2.74;68.85;99675.28;1668742;84;21043;-76
2022/01/17 03:17:12;;;;;;;17.73;8.30;;;;;;;-2.73;68.84;99669.22;1680755;84;21732;-76
2022/01/17 03:19:39;;;;;;;13.93;7.03;;;;;;;-2.74;68.83;99663.20;1678862;83;20961;-76
2022/01/17 03:22:05;;;;;;;16.20;8.38;;;;;;;-2.73;68.84;99658.87;1687656;83;21080;-74
2022/01/17 03:24:31;;;;;;;14.00;8.88;;;;;;;-2.75;68.86;99646.47;1669680;84;21092;-76
2022/01/17 03:26:58;;;;;;;15.03;8.08;;;;;;;-2.73;68.85;99647.25;1686246;83;21522;-77
2022/01/17 03:29:25;;;;;;;14.20;7.87;;;;;;;-2.71;68.84;99648.02;1693180;84;22568;-76
2022/01/17 03:31:51;;;;;;;14.63;8.63;;;;;;;-2.69;68.79;99639.34;1680550;85;21367;-76
2022/01/17 03:34:18;;;;;;;17.98;9.00;;;;;;;-2.66;68.74;99630.63;1677701;84;20920;-76
2022/01/17 03:36:44;;;;;;;14.10;8.50;;;;;;;-2.63;68.62;99633.08;1676654;84;21060;-75
2022/01/17 03:39:11;;;;;;;14.43;8.88;;;;;;;-2.60;68.56;99624.78;1650628;85;21114;-76
2022/01/17 03:41:40;;;;;;;19.12;8.43;;;;;;;-2.57;68.43;99626.40;1649952;85;21824;-77
2022/01/17 03:44:08;;;;;;;17.75;9.60;;;;;;;-2.53;68.32;99627.11;1667025;84;21026;-76
2022/01/17 03:46:35;;;;;;;15.38;9.13;;;;;;;-2.50;68.25;99623.14;1671430;85;21049;-76
2022/01/17 03:49:02;;;;;;;18.20;9.20;;;;;;;-2.46;68.14;99628.57;1671594;85;21030;-75
2022/01/17 03:51:30;;;;;;;16.67;9.25;;;;;;;-2.44;68.00;99615.13;1666604;85;21054;-76
2022/01/17 03:53:57;;;;;;;16.85;9.45;;;;;;;-2.43;67.92;99611.19;1669358;84;22425;-77
2022/01/17 03:56:24;;;;;;;16.42;9.00;;;;;;;-2.38;67.85;99613.16;1661160;85;21031;-77
2022/01/17 03:58:51;;;;;;;17.42;8.58;;;;;;;-2.35;67.78;99613.03;1665121;85;20971;-76
2022/01/17 04:01:19;;;;;;;20.32;9.80;;;;;;;-2.31;67.62;99609.89;1666198;85;21112;-75
2022/01/17 04:03:46;;;;;;;18.98;8.95;;;;;;;-2.28;67.48;99603.75;1670425;84;21023;-77
2022/01/17 04:06:16;;;;;;;16.10;8.28;;;;;;;-2.25;67.29;99608.80;1671163;85;21823;-76
2022/01/17 04:08:43;;;;;;;17.60;8.88;;;;;;;-2.24;67.24;99597.54;1637301;85;21447;-76
2022/01/17 04:11:10;;;;;;;18.85;9.98;;;;;;;-2.22;67.20;99616.42;1669174;84;21461;-76
2022/01/17 04:13:36;;;;;;;15.28;8.40;;;;;;;-2.20;67.11;99631.45;1679545;84;21525;-75
2022/01/17 04:16:04;;;;;;;18.57;8.90;;;;;;;-2.17;67.16;99619.69;1653171;86;21471;-76
2022/01/17 04:18:30;;;;;;;18.30;9.55;;;;;;;-2.16;67.02;99617.48;1647363;85;21838;-75
2022/01/17 04:21:00;;;;;;;16.15;8.80;;;;;;;-2.12;66.96;99610.02;1654570;86;21494;-76
2022/01/17 04:23:25;;;;;;;16.87;8.98;;;;;;;-2.10;66.83;99596.11;1653151;85;21023;-77
2022/01/17 04:25:52;;;;;;;17.80;9.55;;;;;;;-2.07;66.58;99592.09;1655569;85;21007;-76
2022/01/17 04:28:18;;;;;;;18.50;9.20;;;;;;;-2.04;66.20;99589.82;1664172;85;21425;-76
2022/01/17 04:30:44;;;;;;;17.05;9.23;;;;;;;-2.00;66.12;99590.11;1653908;85;21846;-74
2022/01/17 04:33:11;;;;;;;15.13;8.70;;;;;;;-1.97;66.01;99590.42;1638696;85;21171;-75
2022/01/17 04:35:39;;;;;;;18.37;9.40;;;;;;;-1.94;65.92;99583.82;1641825;86;21070;-76
2022/01/17 04:38:13;;;;;;;15.88;8.75;;;;;;;-1.92;65.86;99573.82;1650348;86;21056;-76
2022/01/17 04:40:40;;;;;;;15.10;9.35;;;;;;;-1.90;65.73;99566.83;1671418;84;20976;-77
2022/01/17 04:43:43;;;;;;;21.20;11.60;;;;;;;-1.88;65.47;99549.48;1680362;83;21858;-76
2022/01/17 04:45:50;;;;;;;21.12;11.80;;;;;;;-1.85;65.28;99530.39;1687246;83;20947;-76
2022/01/17 04:48:16;;;;;;;21.80;11.05;;;;;;;-1.83;65.24;99493.66;1677610;84;21076;-76
2022/01/17 04:50:43;;;;;;;17.65;10.38;;;;;;;-1.83;65.20;99477.67;1682261;84;22214;-77
2022/01/17 04:53:12;;;;;;;18.23;10.45;;;;;;;-1.81;65.19;99484.07;1672377;84;20971;-77
2022/01/17 04:55:38;;;;;;;23.25;10.88;;;;;;;-1.81;65.06;99491.38;1729410;82;21860;-76
2022/01/17 04:58:04;;;;;;;17.98;10.80;;;;;;;-1.80;65.10;99511.18;1712315;82;21031;-75
2022/01/17 05:00:31;;;;;;;23.42;10.72;;;;;;;-1.80;65.02;99484.00;1722209;82;21008;-76
2022/01/17 05:02:57;;;;;;;21.80;10.40;;;;;;;-1.77;65.04;99479.14;1723108;82;21494;-76
2022/01/17 05:05:24;;;;;;;22.20;11.00;;;;;;;-1.79;65.00;99455.91;1702325;83;21047;-77
2022/01/17 05:07:50;;;;;;;18.67;10.98;;;;;;;-1.79;65.07;99437.80;1672221;85;21829;-76
2022/01/17 05:10:17;;;;;;;19.15;10.72;;;;;;;-1.80;64.96;99427.05;1686652;84;21007;-77
2022/01/17 05:12:44;;;;;;;17.62;10.50;;;;;;;-1.80;64.90;99428.34;1697118;84;21023;-73
2022/01/17 05:16:06;;;;;;;21.23;11.97;;;;;;;-1.78;64.84;99448.98;1689494;84;20987;-77
2022/01/17 05:20:25;;;;;;;18.23;10.90;;;;;;;-1.73;64.82;99443.17;1623997;87;21868;-74
2022/01/17 05:22:51;;;;;;;22.75;10.95;;;;;;;-1.72;64.78;99437.53;1670332;84;20983;-74
2022/01/17 05:25:18;;;;;;;17.50;10.53;;;;;;;-1.71;64.78;99424.52;1681453;84;21054;-74
2022/01/17 05:27:46;;;;;;;18.20;10.70;;;;;;;-1.69;64.79;99428.33;1668585;84;21017;-76
2022/01/17 05:30:16;;;;;;;20.10;10.28;;;;;;;-1.68;64.77;99414.02;1687725;84;21598;-74
2022/01/17 05:32:43;;;;;;;16.77;9.75;;;;;;;-1.65;64.69;99416.91;1700304;83;21814;-74
2022/01/17 05:35:10;;;;;;;18.02;9.48;;;;;;;-1.65;64.27;99411.28;1691841;84;20988;-74
2022/01/17 05:37:37;;;;;;;19.12;10.32;;;;;;;-1.61;63.90;99441.78;1717821;83;21082;-76
2022/01/17 05:40:08;;;;;;;20.00;10.48;;;;;;;-1.56;63.87;99439.80;1693831;83;21074;-75
2022/01/17 05:42:34;;;;;;;17.73;9.70;;;;;;;-1.53;63.79;99425.45;1693604;83;21114;-76
2022/01/17 05:45:01;;;;;;;20.45;10.05;;;;;;;-1.50;63.80;99425.30;1690700;84;21914;-72
2022/01/17 05:47:27;;;;;;;16.25;9.90;;;;;;;-1.49;63.70;99399.33;1681720;84;21569;-73
2022/01/17 05:49:54;;;;;;;17.02;9.33;;;;;;;-1.48;63.60;99392.40;1684162;83;21017;-74
2022/01/17 05:52:21;;;;;;;21.27;10.50;;;;;;;-1.47;63.50;99392.78;1695641;84;21035;-72
2022/01/17 05:54:47;;;;;;;19.20;11.18;;;;;;;-1.46;63.22;99380.21;1666763;84;21007;-73
2022/01/17 05:57:13;;;;;;;16.45;9.85;;;;;;;-1.45;63.18;99380.17;1683877;83;22271;-74
2022/01/17 05:59:40;;;;;;;17.67;10.13;;;;;;;-1.42;62.97;99384.36;1696731;84;21052;-72
2022/01/17 06:02:07;;;;;;;20.00;9.23;;;;;;;-1.40;62.84;99382.98;1704921;84;20995;-73
2022/01/17 06:04:33;;;;;;;19.15;9.95;;;;;;;-1.38;62.77;99385.88;1664871;85;20987;-73
2022/01/17 06:07:00;;;;;;;19.65;10.68;;;;;;;-1.34;62.78;99378.83;1697359;84;21059;-72
2022/01/17 06:09:26;;;;;;;17.42;9.55;;;;;;;-1.32;62.76;99376.55;1697495;84;21460;-72
2022/01/17 06:11:53;;;;;;;16.67;9.68;;;;;;;-1.31;62.60;99369.16;1696552;84;21406;-72
2022/01/17 06:14:20;;;;;;;18.82;10.72;;;;;;;-1.29;62.60;99372.96;1696311;84;21464;-73
2022/01/17 06:16:47;;;;;;;17.07;10.75;;;;;;;-1.27;62.57;99384.92;1702935;84;21011;-73
2022/01/17 06:19:14;;;;;;;20.05;10.72;;;;;;;-1.24;62.52;99384.80;1679679;84;20968;-73
2022/01/17 06:21:40;;;;;;;39.45;20.05;;;;;;;-1.21;62.26;99391.13;1692975;84;21840;-73
2022/01/17 06:24:09;;;;;;;20.30;10.63;;;;;;;-1.18;62.22;99384.49;1694622;84;21024;-73
2022/01/17 06:26:39;;;;;;;20.92;11.70;;;;;;;-1.13;61.88;99371.80;1683529;84;21479;-72
2022/01/17 06:29:07;;;;;;;24.75;12.05;;;;;;;-1.10;61.85;99362.11;1688575;84;21039;-74
2022/01/17 06:31:36;;;;;;;22.75;10.85;;;;;;;-1.19;62.09;99362.55;1694145;84;21020;-72
2022/01/17 06:34:03;;;;;;;20.37;11.78;;;;;;;-1.24;62.02;99355.00;1697170;84;21841;-72
2022/01/17 06:36:30;;;;;;;17.17;10.03;;;;;;;-1.22;62.07;99339.38;1696266;84;21012;-73
2022/01/17 06:38:56;;;;;;;18.17;10.18;;;;;;;-1.09;61.97;99325.38;1690158;83;21075;-71
2022/01/17 06:41:23;;;;;;;18.73;10.70;;;;;;;-1.00;61.75;99317.98;1669797;85;20987;-72
2022/01/17 06:43:50;;;;;;;18.77;10.20;;;;;;;-0.97;61.64;99302.28;1652046;86;20970;-72
2022/01/17 06:46:16;;;;;;;17.98;9.80;;;;;;;-0.95;61.48;99287.97;1639656;85;21856;-73
2022/01/17 06:48:43;;;;;;;17.70;9.98;;;;;;;-0.94;61.35;99286.59;1631252;86;20986;-73
2022/01/17 06:51:10;;;;;;;16.00;9.63;;;;;;;-0.92;61.42;99281.33;1637704;86;20971;-72
2022/01/17 06:53:36;;;;;;;23.90;12.78;;;;;;;-0.88;61.25;99262.11;1653742;86;21034;-72
2022/01/17 06:56:04;;;;;;;18.48;11.00;;;;;;;-0.89;61.12;99249.61;1643272;85;20994;-73
2022/01/17 06:58:31;;;;;;;20.30;10.50;;;;;;;-0.85;61.23;99241.23;1639308;86;22503;-73
2022/01/17 07:00:58;;;;;;;18.85;10.80;;;;;;;-0.83;61.13;99225.59;1648532;86;22264;-73
2022/01/17 07:03:24;;;;;;;18.85;10.65;;;;;;;-0.83;61.16;99225.59;1629334;85;21449;-74
2022/01/17 07:05:50;;;;;;;20.00;10.63;;;;;;;-0.82;61.22;99242.36;1630027;85;21454;-74
2022/01/17 07:08:17;;;;;;;17.25;10.20;;;;;;;-0.81;61.28;99292.45;1628572;88;21502;-74
2022/01/17 07:10:43;;;;;;;19.30;10.55;;;;;;;-0.80;61.28;99310.52;1628223;88;21815;-73
2022/01/17 07:13:10;;;;;;;21.57;10.80;;;;;;;-0.78;61.14;99321.65;1640588;86;20967;-73
2022/01/17 07:15:37;;;;;;;15.83;9.70;;;;;;;-0.76;61.23;99354.84;1655035;85;21563;-73
2022/01/17 07:18:06;;;;;;;20.95;11.30;;;;;;;-0.71;61.35;99333.86;1644437;86;20975;-73
2022/01/17 07:20:33;;;;;;;20.27;11.57;;;;;;;-0.68;61.16;99325.92;1628270;88;21006;-73
2022/01/17 07:23:00;;;;;;;19.75;11.65;;;;;;;-0.65;61.17;99290.32;1629354;86;21820;-73
2022/01/17 07:25:27;;;;;;;20.68;12.05;;;;;;;-0.60;61.07;99269.33;1647523;85;21103;-74
2022/01/17 07:27:55;;;;;;;21.15;12.03;;;;;;;-0.56;60.99;99240.20;1637717;86;20987;-73
2022/01/17 07:30:22;;;;;;;25.77;13.90;;;;;;;-0.55;60.93;99233.63;1654912;86;21030;-73
2022/01/17 07:32:48;;;;;;;23.55;13.93;;;;;;;-0.52;60.78;99223.55;1655304;86;21099;-72
2022/01/17 07:35:15;;;;;;;24.80;13.85;;;;;;;-0.49;60.60;99207.35;1654587;85;23053;-73
2022/01/17 07:37:42;;;;;;;22.87;13.28;;;;;;;-0.44;60.59;99207.13;1633615;86;20971;-73
2022/01/17 07:40:11;;;;;;;21.30;10.72;;;;;;;-0.40;60.51;99203.44;1663191;85;21007;-73
2022/01/17 07:42:37;;;;;;;27.25;14.75;;;;;;;-0.34;60.32;99208.31;1703928;83;21015;-73
2022/01/17 07:45:15;;;;;;;20.70;12.23;;;;;;;-0.28;60.30;99220.97;1707965;84;20956;-73
2022/01/17 07:47:43;;;;;;;20.43;10.60;;;;;;;-0.22;60.14;99229.70;1728142;82;22852;-73
2022/01/17 07:50:14;;;;;;;17.50;9.93;;;;;;;-0.16;59.74;99242.82;1708231;83;21493;-73
2022/01/17 07:52:42;;;;;;;18.07;9.83;;;;;;;-0.11;59.80;99254.61;1699273;84;20984;-73
2022/01/17 07:55:10;;;;;;;22.22;12.28;;;;;;;-0.13;59.70;99261.65;1697400;84;21067;-75
2022/01/17 07:57:38;;;;;;;22.27;11.20;;;;;;;-0.12;59.75;99273.70;1714791;82;21085;-74
2022/01/17 08:00:07;;;;;;;19.67;11.95;;;;;;;0.02;59.54;99258.70;1683720;84;21846;-73
2022/01/17 08:02:34;;;;;;;18.67;10.13;;;;;;;0.08;59.38;99247.97;1689550;84;21355;-74
2022/01/17 08:05:01;;;;;;;16.62;10.20;;;;;;;0.11;59.28;99232.25;1706632;84;20964;-72
2022/01/17 08:07:28;;;;;;;21.30;10.78;;;;;;;0.16;59.47;99191.27;1704400;84;21022;-72
2022/01/17 08:09:55;;;;;;;21.35;11.08;;;;;;;0.18;59.77;99180.33;1707737;83;21447;-73
2022/01/17 08:12:22;;;;;;;21.00;11.12;;;;;;;0.22;60.65;99164.97;1707201;83;22654;-74
2022/01/17 08:14:48;;;;;;;22.55;10.88;;;;;;;0.23;60.79;99151.53;1708102;84;20988;-73
2022/01/17 08:17:15;;;;;;;17.73;10.40;;;;;;;0.22;60.62;99160.24;1707657;84;21075;-73
2022/01/17 08:19:41;;;;;;;19.70;10.80;;;;;;;0.22;60.99;99117.39;1707931;84;20992;-73
2022/01/17 08:22:08;;;;;;;20.10;11.18;;;;;;;0.21;61.42;99098.85;1707163;83;21027;-73
2022/01/17 08:24:35;;;;;;;28.57;14.83;;;;;;;0.18;61.71;99120.61;1700535;83;21754;-75
2022/01/17 08:27:02;;;;;;;24.05;10.98;;;;;;;0.17;61.99;99105.95;1672814;84;20996;-71
2022/01/17 08:29:29;;;;;;;22.35;10.65;;;;;;;0.18;62.14;99091.22;1699374;84;21016;-71
2022/01/17 08:31:57;;;;;;;19.05;11.57;;;;;;;0.18;62.22;99094.64;1678118;84;21492;-70
2022/01/17 08:34:23;;;;;;;22.27;11.63;;;;;;;0.23;62.27;99097.00;1708022;84;21363;-71
2022/01/17 08:36:50;;;;;;;24.98;13.38;;;;;;;0.25;62.25;99093.37;1707935;82;21908;-71
2022/01/17 08:39:16;;;;;;;22.20;12.95;;;;;;;0.27;62.22;99047.38;1705809;84;21146;-70
2022/01/17 08:41:47;;;;;;;21.37;12.58;;;;;;;0.30;62.31;99047.69;1697055;84;21423;-72
2022/01/17 08:44:13;;;;;;;19.48;11.22;;;;;;;0.32;62.42;99038.03;1691323;84;20980;-71
2022/01/17 08:46:41;;;;;;;21.57;10.82;;;;;;;0.38;62.46;99043.31;1688335;84;21569;-76
2022/01/17 08:49:07;;;;;;;24.72;12.43;;;;;;;0.43;62.53;99043.89;1696673;84;22435;-72
2022/01/17 08:51:34;;;;;;;17.45;10.85;;;;;;;0.48;62.33;99035.34;1701704;83;21471;-72
2022/01/17 08:54:00;;;;;;;18.98;10.45;;;;;;;0.51;62.09;99030.82;1697446;83;21419;-70
2022/01/17 08:56:29;;;;;;;18.45;11.33;;;;;;;0.53;61.79;99023.77;1683097;84;21058;-72
2022/01/17 08:58:55;;;;;;;21.82;11.73;;;;;;;0.56;61.80;99021.44;1686738;84;21051;-72
2022/01/17 09:01:22;;;;;;;18.23;11.73;;;;;;;0.60;61.88;99024.24;1704433;83;22198;-70
2022/01/17 09:03:51;;;;;;;20.95;11.78;;;;;;;0.64;61.79;99014.48;1689637;84;21056;-71
2022/01/17 09:06:17;;;;;;;19.90;11.55;;;;;;;0.67;61.64;99002.60;1669261;84;20997;-71
2022/01/17 09:08:43;;;;;;;19.12;11.18;;;;;;;0.70;61.52;99008.47;1697035;84;20955;-72
2022/01/17 09:11:10;;;;;;;19.02;11.10;;;;;;;0.74;61.42;98996.11;1688359;84;21028;-73
2022/01/17 09:13:37;;;;;;;18.90;9.95;;;;;;;0.79;61.10;98980.62;1697291;84;21915;-73
2022/01/17 09:16:05;;;;;;;19.20;10.75;;;;;;;0.81;60.60;98998.25;1697222;84;38480;-72
2022/01/17 09:18:31;;;;;;;19.82;11.03;;;;;;;0.87;60.72;98977.55;1697444;84;21106;-71
2022/01/17 09:20:59;;;;;;;20.43;11.18;;;;;;;0.92;60.61;98978.09;1696502;84;21052;-72
2022/01/17 09:23:26;;;;;;;18.67;10.90;;;;;;;0.94;60.25;98971.02;1697341;84;21015;-72
2022/01/17 09:25:52;;;;;;;21.07;11.08;;;;;;;0.96;60.15;98978.25;1699178;84;21835;-73
2022/01/17 09:28:19;;;;;;;16.82;10.45;;;;;;;0.97;60.04;98976.05;1687262;84;21010;-72
2022/01/17 09:30:46;;;;;;;18.65;10.68;;;;;;;1.01;60.05;98982.72;1722322;83;21023;-73
2022/01/17 09:33:13;;;;;;;18.75;10.90;;;;;;;1.04;59.94;98975.18;1700298;84;21012;-73
2022/01/17 09:35:39;;;;;;;22.50;12.05;;;;;;;1.06;59.72;98961.61;1699765;84;21497;-71
2022/01/17 09:38:06;;;;;;;18.60;10.82;;;;;;;1.08;59.73;98947.61;1698677;84;21826;-71
2022/01/17 09:40:33;;;;;;;21.62;11.20;;;;;;;1.11;59.69;98930.97;1708776;82;21381;-72
2022/01/17 09:43:02;;;;;;;21.15;12.30;;;;;;;1.14;59.62;98924.26;1671475;84;21519;-71
2022/01/17 09:45:30;;;;;;;23.20;11.08;;;;;;;1.19;59.84;98917.48;1715973;83;20988;-70
2022/01/17 09:47:57;;;;;;;21.33;11.15;;;;;;;1.21;59.64;98916.44;1722321;83;20868;-71
2022/01/17 09:50:33;;;;;;;19.00;10.63;;;;;;;1.24;59.81;98916.70;1709213;83;21859;-72
2022/01/17 09:52:53;;;;;;;15.43;9.83;;;;;;;1.29;59.96;98919.86;1704355;83;21053;-73
2022/01/17 09:55:26;;;;;;;19.80;11.05;;;;;;;1.33;59.81;98920.02;1705336;82;21436;-73
2022/01/17 09:58:01;;;;;;;21.20;11.63;;;;;;;1.35;59.82;98909.03;1705149;83;20968;-70
2022/01/17 10:00:30;;;;;;;19.10;10.48;;;;;;;1.36;59.84;98897.25;1693408;84;21448;-72
2022/01/17 10:02:59;;;;;;;19.77;10.90;;;;;;;1.38;59.70;98907.09;1675659;84;21832;-73
2022/01/17 10:05:26;;;;;;;18.27;10.78;;;;;;;1.39;59.93;98887.94;1697204;84;21035;-72
2022/01/17 10:08:04;;;;;;;24.50;11.33;;;;;;;1.41;60.06;98904.27;1697431;84;20950;-72
2022/01/17 10:10:58;;;;;;;20.57;11.25;;;;;;;1.43;60.04;98891.16;1696901;84;20992;-72
2022/01/17 10:13:33;;;;;;;17.60;10.38;;;;;;;1.48;60.18;98879.17;1695164;84;20975;-71
2022/01/17 10:16:14;;;;;;;20.80;11.25;;;;;;;1.50;60.25;98872.92;1696216;83;21909;-71
2022/01/17 10:18:55;;;;;;;20.20;12.43;;;;;;;1.54;60.43;98872.23;1700696;84;20972;-74
2022/01/17 10:21:44;;;;;;;19.82;11.57;;;;;;;1.59;60.54;98871.48;1696342;84;21468;-70
2022/01/17 10:27:26;;;;;;;18.50;10.40;;;;;;;1.67;60.58;98865.30;1686695;84;21032;-74
2022/01/17 10:35:36;;;;;;;17.67;11.33;;;;;;;1.73;60.71;98851.86;1690996;84;21359;-73
2022/01/17 10:38:16;;;;;;;18.70;10.95;;;;;;;1.79;60.75;98827.20;1688885;83;21487;-77
2022/01/17 10:40:58;;;;;;;19.17;11.40;;;;;;;1.85;60.75;98804.19;1694165;84;21000;-74
2022/01/17 10:43:34;;;;;;;19.82;11.97;;;;;;;1.90;60.73;98799.95;1696396;84;21828;-72
2022/01/17 10:46:09;;;;;;;20.97;11.45;;;;;;;1.94;60.79;98794.91;1692381;84;21081;-74
2022/01/17 10:48:40;;;;;;;22.37;12.65;;;;;;;1.97;60.72;98798.13;1697117;84;21091;-71
2022/01/17 10:51:09;;;;;;;16.50;11.22;;;;;;;1.99;60.82;98775.41;1692873;84;21063;-73
2022/01/17 10:53:40;;;;;;;18.42;10.85;;;;;;;2.02;60.83;98788.68;1684147;84;21043;-72
2022/01/17 10:56:09;;;;;;;17.87;11.22;;;;;;;2.00;60.83;98777.55;1697046;84;21859;-72
2022/01/17 10:58:38;;;;;;;22.42;13.72;;;;;;;1.99;61.03;98771.98;1682852;84;21092;-73
2022/01/17 11:01:13;;;;;;;21.17;12.63;;;;;;;1.96;61.18;98771.73;1686334;84;20984;-76
2022/01/17 11:03:42;;;;;;;18.73;10.93;;;;;;;1.94;61.23;98770.18;1685271;83;20976;-75
2022/01/17 11:06:16;;;;;;;18.90;12.18;;;;;;;1.92;61.21;98765.05;1691138;83;21491;-74
2022/01/17 11:08:45;;;;;;;;;;;;;;;1.93;61.35;98761.98;1697918;84;21846;-73
2022/01/17 11:11:11;;;;;;;19.60;11.95;;;;;;;1.95;61.46;98754.92;1697480;83;20146;-73
2022/01/17 11:13:42;;;;;;;17.90;11.25;;;;;;;1.96;61.60;98755.27;1700151;84;21542;-71
2022/01/17 11:16:11;;;;;;;18.23;11.38;;;;;;;1.96;61.60;98773.50;1678104;84;21027;-72
2022/01/17 11:18:36;;;;;;;18.50;11.20;;;;;;;1.97;61.71;98775.16;1701530;82;21549;-72
2022/01/17 11:21:14;;;;;;;15.55;10.32;;;;;;;1.99;61.71;98780.63;1689797;84;22510;-72
2022/01/17 11:23:43;;;;;;;17.85;10.85;;;;;;;2.03;61.71;98779.09;1686526;84;21099;-71
2022/01/17 11:26:10;;;;;;;20.30;12.10;;;;;;;2.04;61.73;98778.19;1698445;83;21466;-75
2022/01/17 11:28:37;;;;;;;21.20;12.70;;;;;;;2.05;61.75;98779.84;1684824;83;21032;-73
2022/01/17 11:31:07;;;;;;;22.42;12.90;;;;;;;2.04;61.65;98778.19;1691273;84;20976;-71
2022/01/17 11:33:34;;;;;;;21.20;13.32;;;;;;;2.06;61.76;98764.58;1689327;84;21793;-71
2022/01/17 11:36:01;;;;;;;26.40;13.75;;;;;;;2.08;61.91;98752.28;1688293;84;21534;-73
2022/01/17 11:38:31;;;;;;;18.87;12.55;;;;;;;2.11;62.02;98743.77;1697695;84;21006;-72
2022/01/17 11:40:59;;;;;;;18.20;11.22;;;;;;;2.15;62.04;98743.92;1692253;84;21254;-75
2022/01/17 11:43:37;;;;;;;20.17;11.00;;;;;;;2.20;62.03;98747.50;1678646;84;21123;-75
2022/01/17 11:46:27;;;;;;;19.15;11.55;;;;;;;2.22;62.06;98745.16;1691230;83;21894;-74
2022/01/17 11:49:08;;;;;;;19.05;11.03;;;;;;;2.26;62.06;98746.59;1677218;84;21378;-71
2022/01/17 11:51:46;;;;;;;17.75;10.90;;;;;;;2.29;62.12;98738.55;1678970;84;21012;-74
2022/01/17 11:54:16;;;;;;;15.85;10.45;;;;;;;2.32;62.17;98736.66;1682085;84;20964;-74